createdAt,value
2018-06-29T00:00:08.160Z,58.44
2018-06-29T00:00:50.354Z,58.44
2018-06-29T00:01:31.601Z,58.72
2018-06-29T00:02:14.850Z,58.44
2018-06-29T00:02:57.892Z,58.72
2018-06-29T00:03:39.174Z,58.72
2018-06-29T00:04:20.476Z,58.72
2018-06-29T00:05:02.622Z,58.82
2018-06-29T00:05:43.828Z,59.01
2018-06-29T00:06:26.109Z,58.63
2018-06-29T00:07:07.501Z,58.53
2018-06-29T00:07:50.860Z,59.11
2018-06-29T00:08:33.600Z,59.3
2018-06-29T00:09:14.937Z,59.01
2018-06-29T00:09:56.316Z,58.72
2018-06-29T00:10:37.624Z,58.63
2018-06-29T00:11:19.911Z,58.53
2018-06-29T00:12:01.801Z,58.53
2018-06-29T00:12:44.604Z,58.92
2018-06-29T00:13:25.845Z,58.63
2018-06-29T00:14:08.876Z,58.72
2018-06-29T00:14:50.162Z,58.92
2018-06-29T00:15:31.326Z,58.72
2018-06-29T00:16:13.852Z,58.72
2018-06-29T00:16:57.874Z,59.11
2018-06-29T00:17:39.262Z,59.3
2018-06-29T00:18:21.124Z,59.2
2018-06-29T00:19:02.347Z,59.3
2018-06-29T00:19:45.314Z,59.49
2018-06-29T00:20:26.512Z,59.59
2018-06-29T00:21:07.737Z,59.49
2018-06-29T00:21:49.659Z,59.2
2018-06-29T00:22:31.007Z,59.11
2018-06-29T00:23:12.250Z,59.4
2018-06-29T00:23:53.597Z,59.4
2018-06-29T00:24:34.621Z,59.49
2018-06-29T00:25:15.636Z,59.88
2018-06-29T00:25:56.861Z,59.75
2018-06-29T00:26:38.633Z,59.97
2018-06-29T00:27:20.839Z,60.14
2018-06-29T00:28:02.140Z,59.78
2018-06-29T00:28:45.041Z,59.94
2018-06-29T00:29:26.957Z,60.24
2018-06-29T00:30:08.065Z,59.85
2018-06-29T00:30:49.117Z,60.24
2018-06-29T00:31:30.038Z,60.52
2018-06-29T00:32:11.476Z,60.81
2018-06-29T00:32:53.403Z,60.62
2018-06-29T00:33:34.392Z,61.04
2018-06-29T00:34:15.537Z,60.72
2018-06-29T00:34:56.562Z,60.52
2018-06-29T00:35:37.709Z,60.62
2018-06-29T00:36:18.663Z,60.81
2018-06-29T00:36:59.685Z,60.62
2018-06-29T00:37:41.415Z,60.72
2018-06-29T00:38:22.455Z,60.52
2018-06-29T00:39:03.616Z,60.52
2018-06-29T00:39:44.684Z,60.72
2018-06-29T00:40:25.875Z,60.52
2018-06-29T00:41:06.998Z,60.81
2018-06-29T00:41:48.164Z,60.91
2018-06-29T00:42:29.172Z,60.33
2018-06-29T00:43:10.302Z,60.72
2018-06-29T00:43:51.487Z,60.42
2018-06-29T00:44:32.595Z,60.72
2018-06-29T00:45:13.602Z,60.04
2018-06-29T00:45:54.981Z,60.72
2018-06-29T00:46:35.956Z,60.91
2018-06-29T00:47:17.848Z,60.62
2018-06-29T00:48:00.814Z,60.42
2018-06-29T00:48:44.124Z,60.72
2018-06-29T00:49:28.053Z,60.72
2018-06-29T00:50:10.898Z,60.33
2018-06-29T00:50:52.177Z,60.81
2018-06-29T00:51:34.153Z,60.62
2018-06-29T00:52:17.085Z,60.52
2018-06-29T00:52:58.841Z,60.52
2018-06-29T00:53:40.094Z,60.72
2018-06-29T00:54:22.083Z,60.91
2018-06-29T00:55:03.326Z,60.52
2018-06-29T00:55:46.859Z,60.72
2018-06-29T00:56:28.007Z,61.1
2018-06-29T00:57:09.310Z,60.72
2018-06-29T00:57:51.378Z,60.52
2018-06-29T00:58:33.534Z,60.91
2018-06-29T00:59:19.386Z,61
2018-06-29T01:00:01.327Z,61
2018-06-29T01:00:43.404Z,61.19
2018-06-29T01:01:27.109Z,60.91
2018-06-29T01:02:08.508Z,61.19
2018-06-29T01:02:50.594Z,60.81
2018-06-29T01:03:34.126Z,61
2018-06-29T01:04:15.344Z,60.91
2018-06-29T01:04:57.133Z,61.29
2018-06-29T01:05:39.063Z,61.19
2018-06-29T01:06:20.490Z,60.42
2018-06-29T01:07:01.734Z,60.72
2018-06-29T01:07:43.577Z,61.29
2018-06-29T01:08:24.911Z,60.91
2018-06-29T01:09:07.904Z,60.42
2018-06-29T01:09:51.769Z,60.33
2018-06-29T01:10:34.615Z,60.81
2018-06-29T01:11:15.581Z,60.52
2018-06-29T01:11:56.129Z,60.72
2018-06-29T01:12:36.682Z,60.91
2018-06-29T01:13:17.225Z,60.72
2018-06-29T01:13:57.802Z,60.72
2018-06-29T01:14:38.343Z,60.91
2018-06-29T01:15:18.922Z,60.81
2018-06-29T01:15:59.473Z,58.98
2018-06-29T01:16:40.033Z,60.72
2018-06-29T01:17:20.601Z,60.42
2018-06-29T01:18:01.153Z,60.62
2018-06-29T01:18:41.700Z,60.42
2018-06-29T01:19:22.307Z,60.52
2018-06-29T01:20:02.871Z,60.59
2018-06-29T01:20:43.412Z,60.69
2018-06-29T01:21:24.004Z,60.59
2018-06-29T01:22:04.522Z,60.91
2018-06-29T01:22:45.065Z,61.1
2018-06-29T01:23:25.637Z,60.81
2018-06-29T01:24:06.175Z,60.62
2018-06-29T01:24:46.779Z,60.62
2018-06-29T01:25:27.351Z,60.62
2018-06-29T01:26:07.987Z,60.81
2018-06-29T01:26:48.476Z,59.94
2018-06-29T01:27:29.028Z,60.04
2018-06-29T01:28:09.611Z,60.11
2018-06-29T01:28:50.189Z,59.85
2018-06-29T01:29:30.744Z,59.82
2018-06-29T01:30:11.309Z,59.72
2018-06-29T01:30:51.857Z,60.11
2018-06-29T01:31:32.472Z,60.04
2018-06-29T01:32:13.025Z,60.24
2018-06-29T01:32:53.588Z,60.81
2018-06-29T01:33:34.144Z,60.69
2018-06-29T01:34:14.788Z,60.3
2018-06-29T01:34:55.367Z,59.94
2018-06-29T01:35:35.932Z,59.92
2018-06-29T01:36:16.493Z,59.94
2018-06-29T01:36:57.020Z,59.85
2018-06-29T01:37:37.575Z,59.85
2018-06-29T01:38:18.136Z,60.52
2018-06-29T01:38:58.717Z,60.42
2018-06-29T01:39:39.267Z,60.24
2018-06-29T01:40:19.846Z,60.24
2018-06-29T01:41:00.437Z,60.52
2018-06-29T01:41:41.005Z,60.69
2018-06-29T01:42:21.529Z,60.69
2018-06-29T01:43:02.144Z,60.42
2018-06-29T01:43:42.692Z,60.14
2018-06-29T01:44:23.230Z,59.63
2018-06-29T01:45:03.799Z,59.94
2018-06-29T01:45:44.477Z,60.59
2018-06-29T01:46:25.014Z,60.49
2018-06-29T01:47:05.585Z,60.11
2018-06-29T01:47:46.137Z,59.63
2018-06-29T01:48:26.711Z,59.82
2018-06-29T01:49:07.262Z,60.14
2018-06-29T01:49:47.804Z,59.82
2018-06-29T01:50:28.407Z,59.72
2018-06-29T01:51:08.947Z,60.11
2018-06-29T01:51:49.505Z,60.01
2018-06-29T01:52:30.110Z,59.63
2018-06-29T01:53:10.631Z,60.11
2018-06-29T01:53:51.191Z,59.92
2018-06-29T01:54:31.731Z,59.72
2018-06-29T01:55:12.329Z,59.92
2018-06-29T01:55:52.867Z,59.72
2018-06-29T01:56:33.453Z,60.21
2018-06-29T01:57:14.032Z,60.11
2018-06-29T01:57:54.604Z,60.59
2018-06-29T01:58:35.164Z,60.59
2018-06-29T01:59:15.748Z,60.59
2018-06-29T01:59:56.298Z,59.72
2018-06-29T02:00:36.853Z,59.92
2018-06-29T02:01:17.428Z,59.92
2018-06-29T02:01:58.004Z,60.49
2018-06-29T02:02:38.559Z,60.49
2018-06-29T02:03:19.172Z,60.49
2018-06-29T02:04:01.251Z,60.39
2018-06-29T02:04:43.061Z,60.78
2018-06-29T02:05:24.850Z,60.69
2018-06-29T02:06:06.191Z,60.49
2018-06-29T02:06:48.175Z,60.39
2018-06-29T02:07:30.211Z,60.39
2018-06-29T02:08:11.497Z,60.21
2018-06-29T02:08:52.731Z,59.92
2018-06-29T02:09:33.965Z,59.82
2018-06-29T02:10:15.227Z,59.82
2018-06-29T02:10:56.330Z,59.92
2018-06-29T02:11:37.683Z,59.92
2018-06-29T02:12:19.494Z,60.21
2018-06-29T02:13:00.726Z,60.59
2018-06-29T02:13:41.939Z,60.78
2018-06-29T02:14:23.311Z,60.69
2018-06-29T02:15:06.144Z,60.69
2018-06-29T02:15:48.154Z,60.69
2018-06-29T02:16:29.332Z,60.69
2018-06-29T02:17:10.507Z,60.88
2018-06-29T02:17:51.864Z,60.39
2018-06-29T02:18:34.181Z,60.59
2018-06-29T02:19:17.091Z,60.59
2018-06-29T02:19:59.417Z,60.78
2018-06-29T02:20:42.936Z,60.3
2018-06-29T02:21:24.111Z,60.88
2018-06-29T02:22:05.449Z,60.59
2018-06-29T02:22:48.022Z,60.78
2018-06-29T02:23:29.267Z,60.78
2018-06-29T02:24:11.132Z,60.59
2018-06-29T02:24:52.458Z,60.78
2018-06-29T02:25:36.183Z,60.59
2018-06-29T02:26:19.936Z,60.59
2018-06-29T02:27:01.801Z,60.39
2018-06-29T02:27:44.668Z,59.44
2018-06-29T02:28:25.686Z,59.15
2018-06-29T02:29:07.368Z,59.15
2018-06-29T02:29:48.627Z,60.69
2018-06-29T02:30:29.877Z,60.59
2018-06-29T02:31:12.650Z,60.21
2018-06-29T02:31:55.346Z,60.49
2018-06-29T02:32:38.076Z,60.39
2018-06-29T02:33:20.931Z,59.72
2018-06-29T02:34:01.909Z,60.21
2018-06-29T02:34:43.126Z,60.69
2018-06-29T02:35:24.328Z,60.27
2018-06-29T02:36:05.446Z,61.07
2018-06-29T02:36:46.788Z,60.69
2018-06-29T02:37:28.069Z,60.69
2018-06-29T02:38:10.324Z,60.88
2018-06-29T02:38:52.157Z,60.78
2018-06-29T02:39:35.173Z,60.75
2018-06-29T02:40:17.181Z,60.78
2018-06-29T02:40:58.340Z,60.39
2018-06-29T02:41:39.637Z,60.75
2018-06-29T02:42:20.956Z,61.07
2018-06-29T02:43:02.163Z,60.59
2018-06-29T02:43:43.353Z,60.56
2018-06-29T02:44:24.622Z,60.17
2018-06-29T02:45:05.867Z,59.79
2018-06-29T02:45:47.041Z,59.69
2018-06-29T02:46:28.270Z,60.59
2018-06-29T02:47:09.265Z,60.69
2018-06-29T02:47:51.424Z,60.56
2018-06-29T02:48:32.680Z,59.89
2018-06-29T02:49:13.961Z,59.69
2018-06-29T02:49:55.225Z,59.89
2018-06-29T02:50:36.549Z,59.79
2018-06-29T02:51:18.399Z,60.37
2018-06-29T02:52:00.638Z,60.46
2018-06-29T02:52:42.774Z,60.85
2018-06-29T02:53:24.082Z,60.37
2018-06-29T02:54:06.145Z,60.66
2018-06-29T02:54:47.472Z,60.56
2018-06-29T02:55:29.337Z,60.46
2018-06-29T02:56:12.088Z,61.04
2018-06-29T02:56:54.040Z,60.94
2018-06-29T02:57:37.120Z,61.04
2018-06-29T02:58:18.267Z,61.04
2018-06-29T02:58:59.518Z,60.94
2018-06-29T02:59:41.422Z,61.04
2018-06-29T03:00:22.792Z,60.94
2018-06-29T03:01:04.020Z,61.14
2018-06-29T03:01:48.157Z,60.85
2018-06-29T03:02:30.115Z,60.75
2018-06-29T03:03:12.940Z,60.37
2018-06-29T03:03:54.084Z,60.66
2018-06-29T03:04:35.232Z,61.04
2018-06-29T03:05:16.486Z,60.94
2018-06-29T03:05:57.545Z,60.94
2018-06-29T03:06:38.629Z,61.04
2018-06-29T03:07:19.760Z,61.04
2018-06-29T03:08:01.082Z,60.46
2018-06-29T03:08:42.297Z,60.66
2018-06-29T03:09:23.522Z,60.56
2018-06-29T03:10:04.758Z,60.56
2018-06-29T03:10:46.652Z,60.75
2018-06-29T03:11:27.633Z,61.04
2018-06-29T03:12:09.350Z,60.94
2018-06-29T03:12:50.608Z,60.94
2018-06-29T03:13:32.613Z,60.56
2018-06-29T03:14:14.516Z,60.46
2018-06-29T03:14:56.389Z,60.75
2018-06-29T03:15:39.426Z,60.46
2018-06-29T03:16:20.619Z,60.75
2018-06-29T03:17:02.475Z,60.75
2018-06-29T03:17:45.586Z,60.66
2018-06-29T03:18:28.366Z,60.66
2018-06-29T03:19:10.615Z,60.94
2018-06-29T03:19:52.487Z,60.66
2018-06-29T03:20:33.712Z,60.94
2018-06-29T03:21:14.889Z,60.37
2018-06-29T03:21:56.669Z,60.37
2018-06-29T03:22:38.622Z,60.75
2018-06-29T03:23:20.613Z,61.04
2018-06-29T03:24:01.801Z,60.56
2018-06-29T03:24:42.942Z,61.04
2018-06-29T03:25:24.150Z,60.75
2018-06-29T03:26:05.174Z,60.56
2018-06-29T03:26:47.337Z,60.56
2018-06-29T03:27:28.547Z,60.37
2018-06-29T03:28:09.771Z,60.66
2018-06-29T03:28:52.658Z,60.85
2018-06-29T03:29:33.808Z,61.14
2018-06-29T03:30:14.910Z,60.75
2018-06-29T03:30:56.016Z,61.04
2018-06-29T03:31:37.209Z,60.85
2018-06-29T03:32:18.536Z,60.75
2018-06-29T03:32:59.629Z,60.75
2018-06-29T03:33:40.608Z,60.75
2018-06-29T03:34:22.420Z,60.75
2018-06-29T03:35:03.605Z,61.04
2018-06-29T03:35:46.598Z,61.04
2018-06-29T03:36:28.581Z,60.94
2018-06-29T03:37:10.394Z,60.66
2018-06-29T03:37:51.556Z,60.85
2018-06-29T03:38:32.715Z,60.75
2018-06-29T03:39:14.376Z,60.94
2018-06-29T03:39:55.520Z,60.94
2018-06-29T03:40:36.814Z,60.85
2018-06-29T03:41:18.375Z,60.94
2018-06-29T03:42:00.322Z,60.85
2018-06-29T03:42:41.396Z,60.75
2018-06-29T03:43:22.539Z,60.94
2018-06-29T03:44:03.715Z,60.85
2018-06-29T03:44:44.785Z,60.75
2018-06-29T03:45:26.085Z,60.75
2018-06-29T03:46:07.153Z,58.64
2018-06-29T03:46:48.348Z,60.85
2018-06-29T03:47:29.506Z,61.04
2018-06-29T03:48:10.718Z,60.46
2018-06-29T03:48:52.544Z,60.17
2018-06-29T03:49:34.649Z,60.17
2018-06-29T03:50:15.789Z,60.85
2018-06-29T03:50:57.646Z,60.56
2018-06-29T03:51:38.741Z,60.85
2018-06-29T03:52:20.898Z,60.75
2018-06-29T03:53:01.840Z,60.66
2018-06-29T03:53:43.594Z,60.27
2018-06-29T03:54:24.577Z,61.04
2018-06-29T03:55:06.172Z,60.46
2018-06-29T03:55:47.340Z,59.69
2018-06-29T03:56:29.070Z,60.17
2018-06-29T03:57:10.922Z,60.17
2018-06-29T03:57:52.058Z,60.46
2018-06-29T03:58:33.269Z,60.37
2018-06-29T03:59:15.129Z,60.17
2018-06-29T03:59:56.339Z,60.17
2018-06-29T04:00:37.492Z,60.46
2018-06-29T04:01:18.586Z,60.56
2018-06-29T04:01:59.651Z,60.46
2018-06-29T04:02:40.728Z,60.66
2018-06-29T04:03:21.932Z,60.94
2018-06-29T04:04:03.044Z,60.46
2018-06-29T04:04:44.264Z,60.37
2018-06-29T04:05:25.345Z,60.46
2018-06-29T04:06:06.506Z,60.08
2018-06-29T04:06:47.683Z,60.46
2018-06-29T04:07:28.871Z,60.75
2018-06-29T04:08:10.091Z,60.46
2018-06-29T04:08:51.320Z,61.33
2018-06-29T04:09:33.117Z,60.75
2018-06-29T04:10:14.188Z,60.75
2018-06-29T04:10:55.344Z,60.75
2018-06-29T04:11:36.506Z,61.33
2018-06-29T04:12:17.744Z,61.61
2018-06-29T04:12:59.016Z,61.33
2018-06-29T04:13:40.155Z,61.23
2018-06-29T04:14:22.394Z,62.1
2018-06-29T04:15:03.497Z,61.43
2018-06-29T04:15:44.647Z,61.43
2018-06-29T04:16:25.888Z,61.43
2018-06-29T04:17:07.064Z,60.85
2018-06-29T04:17:49.145Z,61.04
2018-06-29T04:18:30.340Z,61.33
2018-06-29T04:19:11.387Z,61.71
2018-06-29T04:19:52.503Z,61.04
2018-06-29T04:20:33.688Z,60.94
2018-06-29T04:21:14.719Z,61.14
2018-06-29T04:21:56.575Z,61.33
2018-06-29T04:22:37.803Z,62.1
2018-06-29T04:23:19.773Z,61.81
2018-06-29T04:24:01.822Z,61.33
2018-06-29T04:24:43.016Z,61.33
2018-06-29T04:25:24.203Z,61.71
2018-06-29T04:26:05.386Z,61.71
2018-06-29T04:26:46.538Z,61.91
2018-06-29T04:27:28.739Z,62
2018-06-29T04:28:09.793Z,60.75
2018-06-29T04:28:51.034Z,61.52
2018-06-29T04:29:32.171Z,60.37
2018-06-29T04:30:13.272Z,60.56
2018-06-29T04:30:54.385Z,60.94
2018-06-29T04:31:35.493Z,61.04
2018-06-29T04:32:16.565Z,61.33
2018-06-29T04:32:57.676Z,61.14
2018-06-29T04:33:38.883Z,61.14
2018-06-29T04:34:20.089Z,60.08
2018-06-29T04:35:01.336Z,60.46
2018-06-29T04:35:43.201Z,60.17
2018-06-29T04:36:24.252Z,60.08
2018-06-29T04:37:06.204Z,59.69
2018-06-29T04:37:48.093Z,59.6
2018-06-29T04:38:29.796Z,60.27
2018-06-29T04:39:11.029Z,59.99
2018-06-29T04:39:52.270Z,59.69
2018-06-29T04:40:33.371Z,59.89
2018-06-29T04:41:14.580Z,59.69
2018-06-29T04:41:55.694Z,59.79
2018-06-29T04:42:36.865Z,60.37
2018-06-29T04:43:18.156Z,60.56
2018-06-29T04:44:00.153Z,60.56
2018-06-29T04:44:42.664Z,60.66
2018-06-29T04:45:23.767Z,60.08
2018-06-29T04:46:04.952Z,61.33
2018-06-29T04:46:48.136Z,62.38
2018-06-29T04:47:29.337Z,62.58
2018-06-29T04:48:10.442Z,61.52
2018-06-29T04:48:51.510Z,62.1
2018-06-29T04:49:32.531Z,63.06
2018-06-29T04:50:13.833Z,63.38
2018-06-29T04:50:55.052Z,62.9
2018-06-29T04:51:36.188Z,63.67
2018-06-29T04:52:17.458Z,62.8
2018-06-29T04:52:58.703Z,62.71
2018-06-29T04:53:40.688Z,62.41
2018-06-29T04:54:21.847Z,61.94
2018-06-29T04:55:03.139Z,60.69
2018-06-29T04:55:44.987Z,60.39
2018-06-29T04:56:26.911Z,60.01
2018-06-29T04:57:08.713Z,59.44
2018-06-29T04:57:49.821Z,59.82
2018-06-29T04:58:30.956Z,60.78
2018-06-29T04:59:13.128Z,60.69
2018-06-29T04:59:54.290Z,60.69
2018-06-29T05:00:35.465Z,60.49
2018-06-29T05:01:16.682Z,59.72
2018-06-29T05:01:57.812Z,59.15
2018-06-29T05:02:39.010Z,58.98
2018-06-29T05:03:21.178Z,58.57
2018-06-29T05:04:03.191Z,58.95
2018-06-29T05:04:44.419Z,59.44
2018-06-29T05:05:25.606Z,59.44
2018-06-29T05:06:06.656Z,59.53
2018-06-29T05:06:47.809Z,59.82
2018-06-29T05:07:29.792Z,60.69
2018-06-29T05:08:10.909Z,60.69
2018-06-29T05:08:52.664Z,60.91
2018-06-29T05:09:33.824Z,62.13
2018-06-29T05:10:15.027Z,61.49
2018-06-29T05:10:56.214Z,60.72
2018-06-29T05:11:37.391Z,60.04
2018-06-29T05:12:18.600Z,59.75
2018-06-29T05:12:59.855Z,59.75
2018-06-29T05:13:41.105Z,60.42
2018-06-29T05:14:22.396Z,61.19
2018-06-29T05:15:06.412Z,59.08
2018-06-29T05:15:47.644Z,60.14
2018-06-29T05:16:29.676Z,60.81
2018-06-29T05:17:11.467Z,60.72
2018-06-29T05:17:53.188Z,60.72
2018-06-29T05:18:34.766Z,60.04
2018-06-29T05:19:15.878Z,59.85
2018-06-29T05:19:57.130Z,59.94
2018-06-29T05:20:38.397Z,59.97
2018-06-29T05:21:20.152Z,59.78
2018-06-29T05:22:02.078Z,59.88
2018-06-29T05:22:43.116Z,60.65
2018-06-29T05:23:24.419Z,59.97
2018-06-29T05:24:06.074Z,59.2
2018-06-29T05:24:47.297Z,59.2
2018-06-29T05:25:28.536Z,59.01
2018-06-29T05:26:10.207Z,57.95
2018-06-29T05:26:51.573Z,58.63
2018-06-29T05:27:32.714Z,58.56
2018-06-29T05:28:14.273Z,58.85
2018-06-29T05:28:56.612Z,58.56
2018-06-29T05:29:37.751Z,58.27
2018-06-29T05:30:18.977Z,57.4
2018-06-29T05:31:00.052Z,57.21
2018-06-29T05:31:42.007Z,57.4
2018-06-29T05:32:23.849Z,56.63
2018-06-29T05:33:05.051Z,57.43
2018-06-29T05:33:46.224Z,57.53
2018-06-29T05:34:27.526Z,57.62
2018-06-29T05:35:08.793Z,57.14
2018-06-29T05:35:50.734Z,57.14
2018-06-29T05:36:31.886Z,57.53
2018-06-29T05:37:13.094Z,57.85
2018-06-29T05:37:56.118Z,57.37
2018-06-29T05:38:37.404Z,55.92
2018-06-29T05:39:18.562Z,55.63
2018-06-29T05:40:00.696Z,55.76
2018-06-29T05:40:41.837Z,55.85
2018-06-29T05:41:23.673Z,54.98
2018-06-29T05:42:04.864Z,55.18
2018-06-29T05:42:46.775Z,55.56
2018-06-29T05:43:27.914Z,55.1
2018-06-29T05:44:09.085Z,55.2
2018-06-29T05:44:51.257Z,53.95
2018-06-29T05:45:32.423Z,52.89
2018-06-29T05:46:13.636Z,53.56
2018-06-29T05:46:54.855Z,53.47
2018-06-29T05:47:36.000Z,53.37
2018-06-29T05:48:17.276Z,54.46
2018-06-29T05:48:58.447Z,54.07
2018-06-29T05:49:40.468Z,53.3
2018-06-29T05:50:21.576Z,53.71
2018-06-29T05:51:03.328Z,52.53
2018-06-29T05:51:44.701Z,52.65
2018-06-29T05:52:26.736Z,52.75
2018-06-29T05:53:08.808Z,51.49
2018-06-29T05:53:49.942Z,52.75
2018-06-29T05:54:31.212Z,52.36
2018-06-29T05:55:13.740Z,51.01
2018-06-29T05:55:54.966Z,50.81
2018-06-29T05:56:36.101Z,51.13
2018-06-29T05:57:17.213Z,51.03
2018-06-29T05:57:58.429Z,50.65
2018-06-29T05:58:39.948Z,50.74
2018-06-29T05:59:21.104Z,50.74
2018-06-29T06:00:02.282Z,50.84
2018-06-29T06:00:44.243Z,50.74
2018-06-29T06:01:25.464Z,50.18
2018-06-29T06:02:06.831Z,50.57
2018-06-29T06:02:48.013Z,51.15
2018-06-29T06:03:29.261Z,51.73
2018-06-29T06:04:11.222Z,51.73
2018-06-29T06:04:52.493Z,50.76
2018-06-29T06:05:33.709Z,49.92
2018-06-29T06:06:14.901Z,49.24
2018-06-29T06:06:56.194Z,49.73
2018-06-29T06:07:38.212Z,49.63
2018-06-29T06:08:19.409Z,50.31
2018-06-29T06:09:00.740Z,49.15
2018-06-29T06:09:42.716Z,49.75
2018-06-29T06:10:24.722Z,50.82
2018-06-29T06:11:05.915Z,50.43
2018-06-29T06:11:47.678Z,50.82
2018-06-29T06:12:28.831Z,50.43
2018-06-29T06:13:10.119Z,49.85
2018-06-29T06:13:51.192Z,48.71
2018-06-29T06:14:33.697Z,48.52
2018-06-29T06:15:15.462Z,47.16
2018-06-29T06:15:56.645Z,47.06
2018-06-29T06:16:38.714Z,48.52
2018-06-29T06:17:19.909Z,49.49
2018-06-29T06:18:01.928Z,49.29
2018-06-29T06:18:43.090Z,49.8
2018-06-29T06:19:24.258Z,49.51
2018-06-29T06:20:05.460Z,49.61
2018-06-29T06:20:46.780Z,48.54
2018-06-29T06:21:28.030Z,46.02
2018-06-29T06:22:10.154Z,47.3
2018-06-29T06:22:52.218Z,46.33
2018-06-29T06:23:33.447Z,45.75
2018-06-29T06:24:14.645Z,44.59
2018-06-29T06:24:55.941Z,45.75
2018-06-29T06:25:37.043Z,47.4
2018-06-29T06:26:18.236Z,47.2
2018-06-29T06:27:00.969Z,45.47
2018-06-29T06:27:43.246Z,46.04
2018-06-29T06:28:24.427Z,46.92
2018-06-29T06:29:07.503Z,46.04
2018-06-29T06:29:49.483Z,44.49
2018-06-29T06:30:31.631Z,44.01
2018-06-29T06:31:13.452Z,44.2
2018-06-29T06:31:54.694Z,44.1
2018-06-29T06:32:35.914Z,44.78
2018-06-29T06:33:17.449Z,44.49
2018-06-29T06:33:59.694Z,45.37
2018-06-29T06:34:41.586Z,46.33
2018-06-29T06:35:22.821Z,46.53
2018-06-29T06:36:04.812Z,46.14
2018-06-29T06:36:46.030Z,46.72
2018-06-29T06:37:28.362Z,46.82
2018-06-29T06:38:09.641Z,47.33
2018-06-29T06:38:50.911Z,46.16
2018-06-29T06:39:33.047Z,43.84
2018-06-29T06:40:14.130Z,43.93
2018-06-29T06:40:56.090Z,45.1
2018-06-29T06:41:37.407Z,44.23
2018-06-29T06:42:19.248Z,44.23
2018-06-29T06:43:00.582Z,42.19
2018-06-29T06:43:41.761Z,43.54
2018-06-29T06:44:23.010Z,43.54
2018-06-29T06:45:04.149Z,42.77
2018-06-29T06:45:46.230Z,43.84
2018-06-29T06:46:27.496Z,45.2
2018-06-29T06:47:08.780Z,44.32
2018-06-29T06:47:50.772Z,44.03
2018-06-29T06:48:32.687Z,43.45
2018-06-29T06:49:13.889Z,44.24
2018-06-29T06:49:55.120Z,43.35
2018-06-29T06:50:36.226Z,43.18
2018-06-29T06:51:17.440Z,41.99
2018-06-29T06:51:59.499Z,41.31
2018-06-29T06:52:40.751Z,42.77
2018-06-29T06:53:21.996Z,43.74
2018-06-29T06:54:03.209Z,43.54
2018-06-29T06:54:44.393Z,43.74
2018-06-29T06:55:25.537Z,43.93
2018-06-29T06:56:06.727Z,43.93
2018-06-29T06:56:48.190Z,43.18
2018-06-29T06:57:29.928Z,41.63
2018-06-29T06:58:11.264Z,42.3
2018-06-29T06:58:54.218Z,44.54
2018-06-29T06:59:35.433Z,44.24
2018-06-29T07:00:16.641Z,44.73
2018-06-29T07:00:57.977Z,45.61
2018-06-29T07:01:39.162Z,46.19
2018-06-29T07:02:20.312Z,44.34
2018-06-29T07:03:01.655Z,44.56
2018-06-29T07:03:42.936Z,44.37
2018-06-29T07:04:24.301Z,44.75
2018-06-29T07:05:05.504Z,43.68
2018-06-29T07:05:46.655Z,44.37
2018-06-29T07:06:27.242Z,44.85
2018-06-29T07:07:07.862Z,44.78
2018-06-29T07:07:48.469Z,43.8
2018-06-29T07:08:29.045Z,41.28
2018-06-29T07:09:09.715Z,42.83
2018-06-29T07:09:50.257Z,44.48
2018-06-29T07:10:30.929Z,44.58
2018-06-29T07:11:12.080Z,43.8
2018-06-29T07:11:52.094Z,43.51
2018-06-29T07:12:32.728Z,43.12
2018-06-29T07:13:13.203Z,43.02
2018-06-29T07:13:53.773Z,42.93
2018-06-29T07:14:34.306Z,42.93
2018-06-29T07:15:14.907Z,43.71
2018-06-29T07:15:55.506Z,44.12
2018-06-29T07:16:36.075Z,43.73
2018-06-29T07:17:16.813Z,40.91
2018-06-29T07:17:57.609Z,41.78
2018-06-29T07:18:38.426Z,43.82
2018-06-29T07:19:19.187Z,43.63
2018-06-29T07:20:00.093Z,43.92
2018-06-29T07:20:40.935Z,42.66
2018-06-29T07:21:21.536Z,43.73
2018-06-29T07:22:02.091Z,43.82
2018-06-29T07:22:42.749Z,42.49
2018-06-29T07:23:23.318Z,42.58
2018-06-29T07:24:03.901Z,42.87
2018-06-29T07:24:44.490Z,41.51
2018-06-29T07:25:25.132Z,39.86
2018-06-29T07:26:05.700Z,39.37
2018-06-29T07:26:46.371Z,41.78
2018-06-29T07:27:26.922Z,41.22
2018-06-29T07:28:07.519Z,39.84
2018-06-29T07:28:48.086Z,40.03
2018-06-29T07:29:28.637Z,39.94
2018-06-29T07:30:09.207Z,40.91
2018-06-29T07:30:49.832Z,41.13
2018-06-29T07:31:30.378Z,40.13
2018-06-29T07:32:12.148Z,40.81
2018-06-29T07:32:52.698Z,39.55
2018-06-29T07:33:33.256Z,39.75
2018-06-29T07:34:13.859Z,41.2
2018-06-29T07:34:54.451Z,41.3
2018-06-29T07:35:35.024Z,41.39
2018-06-29T07:36:15.613Z,41.2
2018-06-29T07:36:56.293Z,41.13
2018-06-29T07:37:36.747Z,41.9
2018-06-29T07:38:17.359Z,41.8
2018-06-29T07:38:57.941Z,40.15
2018-06-29T07:39:38.464Z,41.32
2018-06-29T07:40:19.063Z,40.54
2018-06-29T07:40:59.616Z,40.73
2018-06-29T07:41:40.321Z,41.13
2018-06-29T07:42:21.088Z,41.42
2018-06-29T07:43:01.707Z,39.96
2018-06-29T07:43:42.609Z,40.15
2018-06-29T07:44:23.788Z,41.14
2018-06-29T07:45:05.033Z,39.67
2018-06-29T07:45:47.774Z,40.44
2018-06-29T07:46:28.973Z,39.86
2018-06-29T07:47:10.228Z,39.08
2018-06-29T07:47:52.295Z,40.08
2018-06-29T07:48:33.490Z,39.49
2018-06-29T07:49:14.605Z,39.57
2018-06-29T07:49:56.767Z,39.86
2018-06-29T07:50:38.015Z,39.2
2018-06-29T07:51:19.270Z,39.98
2018-06-29T07:52:00.433Z,37.82
2018-06-29T07:52:41.578Z,38.79
2018-06-29T07:53:22.792Z,37.82
2018-06-29T07:54:03.900Z,38.01
2018-06-29T07:54:45.157Z,39.86
2018-06-29T07:55:27.001Z,39.47
2018-06-29T07:56:08.368Z,38.79
2018-06-29T07:56:49.522Z,38.89
2018-06-29T07:57:30.637Z,39.67
2018-06-29T07:58:11.821Z,40.64
2018-06-29T07:58:52.996Z,40.83
2018-06-29T07:59:34.136Z,40.15
2018-06-29T08:00:15.296Z,40.15
2018-06-29T08:00:56.473Z,40.54
2018-06-29T08:01:38.316Z,39.2
2018-06-29T08:02:19.492Z,40.37
2018-06-29T08:03:00.852Z,40.66
2018-06-29T08:03:43.097Z,40.66
2018-06-29T08:04:24.396Z,41.53
2018-06-29T08:05:06.625Z,40.47
2018-06-29T08:05:49.333Z,39.29
2018-06-29T08:06:31.228Z,39.49
2018-06-29T08:07:12.457Z,39.2
2018-06-29T08:07:53.616Z,40.27
2018-06-29T08:08:34.898Z,39.39
2018-06-29T08:09:16.823Z,39.1
2018-06-29T08:09:57.907Z,38.42
2018-06-29T08:10:39.124Z,38.81
2018-06-29T08:11:21.012Z,37.35
2018-06-29T08:12:02.272Z,39.29
2018-06-29T08:12:43.442Z,38.93
2018-06-29T08:13:24.627Z,36.57
2018-06-29T08:14:05.806Z,37.06
2018-06-29T08:14:47.724Z,39.2
2018-06-29T08:15:30.730Z,38.91
2018-06-29T08:16:12.719Z,37.74
2018-06-29T08:16:54.033Z,37.93
2018-06-29T08:17:36.005Z,38.23
2018-06-29T08:18:17.708Z,36.18
2018-06-29T08:18:59.200Z,37.35
2018-06-29T08:19:40.606Z,37.84
2018-06-29T08:20:21.898Z,37.26
2018-06-29T08:21:05.517Z,37.84
2018-06-29T08:21:46.783Z,38.81
2018-06-29T08:22:28.040Z,37.84
2018-06-29T08:23:09.168Z,39.88
2018-06-29T08:23:50.324Z,39.2
2018-06-29T08:24:31.442Z,39
2018-06-29T08:25:12.700Z,37.93
2018-06-29T08:25:53.946Z,39.2
2018-06-29T08:26:35.135Z,39.39
2018-06-29T08:27:16.832Z,39.59
2018-06-29T08:27:57.978Z,39.59
2018-06-29T08:28:39.834Z,38.23
2018-06-29T08:29:21.117Z,38.42
2018-06-29T08:30:02.324Z,37.54
2018-06-29T08:30:43.554Z,36.28
2018-06-29T08:31:24.876Z,36.08
2018-06-29T08:32:06.773Z,36.18
2018-06-29T08:32:47.926Z,37.84
2018-06-29T08:33:29.256Z,38.42
2018-06-29T08:34:10.446Z,37.52
2018-06-29T08:34:51.671Z,37.62
2018-06-29T08:35:33.599Z,38.7
2018-06-29T08:36:14.817Z,38.98
2018-06-29T08:36:56.495Z,38.23
2018-06-29T08:37:38.323Z,37.72
2018-06-29T08:38:20.505Z,36.87
2018-06-29T08:39:01.880Z,36.36
2018-06-29T08:39:43.160Z,36.36
2018-06-29T08:40:24.476Z,39.28
2018-06-29T08:41:06.347Z,38.98
2018-06-29T08:41:48.610Z,40.54
2018-06-29T08:42:29.860Z,40.73
2018-06-29T08:43:11.026Z,38.5
2018-06-29T08:43:52.425Z,38.98
2018-06-29T08:44:34.244Z,39.86
2018-06-29T08:45:15.412Z,39
2018-06-29T08:45:56.554Z,36.96
2018-06-29T08:46:37.825Z,36.47
2018-06-29T08:47:19.025Z,36.46
2018-06-29T08:48:00.226Z,35.88
2018-06-29T08:48:41.430Z,35.39
2018-06-29T08:49:23.446Z,37.04
2018-06-29T08:50:04.498Z,36.46
2018-06-29T08:50:45.723Z,35.88
2018-06-29T08:51:27.638Z,35.1
2018-06-29T08:52:08.819Z,35.68
2018-06-29T08:52:51.130Z,35.19
2018-06-29T08:53:32.187Z,35.1
2018-06-29T08:54:14.441Z,36.46